createdAt,value
2022-09-16T00:03:59.597Z,1.67
2022-09-16T00:08:14.928Z,1.60
2022-09-16T00:12:28.912Z,1.50
2022-09-16T00:16:42.809Z,1.60
2022-09-16T00:20:56.525Z,1.80
2022-09-16T00:25:11.710Z,1.80
2022-09-16T00:29:25.523Z,1.65
2022-09-16T00:33:39.160Z,1.60
2022-09-16T00:37:52.806Z,1.57
2022-09-16T00:42:08.032Z,1.67
2022-09-16T00:46:27.684Z,1.77
2022-09-16T00:50:47.099Z,1.50
2022-09-16T00:55:04.998Z,1.50
2022-09-16T00:59:23.114Z,1.60
2022-09-16T01:03:43.199Z,1.67
2022-09-16T01:07:57.397Z,1.70
2022-09-16T01:12:11.104Z,1.77
2022-09-16T01:16:33.854Z,1.60
2022-09-16T01:21:20.324Z,1.80
2022-09-16T01:25:50.371Z,1.70
2022-09-16T01:30:22.505Z,1.83
2022-09-16T01:34:49.409Z,1.70
2022-09-16T01:39:14.274Z,1.70
2022-09-16T01:43:41.797Z,1.52
2022-09-16T01:48:02.405Z,1.60
2022-09-16T01:52:24.247Z,1.60
2022-09-16T01:56:43.306Z,1.83
2022-09-16T02:01:04.847Z,2.00
2022-09-16T02:05:23.958Z,1.40
2022-09-16T02:09:42.823Z,1.80
2022-09-16T02:14:00.620Z,2.17
2022-09-16T02:18:21.165Z,1.80
2022-09-16T02:22:38.911Z,1.70
2022-09-16T02:27:00.748Z,1.92
2022-09-16T02:31:16.821Z,1.60
2022-09-16T02:35:31.799Z,1.70
2022-09-16T02:39:49.548Z,1.60
2022-09-16T02:44:05.647Z,1.58
2022-09-16T02:48:27.474Z,1.60
2022-09-16T02:52:47.330Z,1.55
2022-09-16T02:57:01.204Z,1.67
2022-09-16T03:01:17.194Z,1.60
2022-09-16T03:05:31.247Z,1.53
2022-09-16T03:09:48.811Z,1.45
2022-09-16T03:14:20.812Z,1.70
2022-09-16T03:18:52.264Z,2.00
2022-09-16T03:23:14.874Z,1.70
2022-09-16T03:27:33.767Z,1.73
2022-09-16T03:31:56.289Z,1.53
2022-09-16T03:36:16.560Z,1.90
2022-09-16T03:40:32.277Z,1.80
2022-09-16T03:44:46.038Z,1.80
2022-09-16T03:49:00.072Z,1.83
2022-09-16T03:53:15.181Z,1.90
2022-09-16T03:57:30.384Z,2.00
2022-09-16T04:01:45.471Z,2.67
2022-09-16T04:05:59.634Z,1.90
2022-09-16T04:10:14.711Z,2.10
2022-09-16T04:14:28.429Z,2.20
2022-09-16T04:18:42.281Z,2.20
2022-09-16T04:22:56.012Z,1.88
2022-09-16T04:27:11.297Z,2.10
2022-09-16T04:31:24.940Z,1.80
2022-09-16T04:35:38.755Z,1.95
2022-09-16T04:39:53.372Z,1.83
2022-09-16T04:44:08.644Z,2.10
2022-09-16T04:48:22.210Z,1.90
2022-09-16T04:52:36.286Z,2.20
2022-09-16T04:56:49.962Z,2.30
2022-09-16T05:01:12.670Z,2.30
2022-09-16T05:05:26.400Z,2.47
2022-09-16T05:09:40.162Z,2.80
2022-09-16T05:13:54.135Z,2.67
2022-09-16T05:18:09.166Z,2.65
2022-09-16T05:22:22.851Z,2.60
2022-09-16T05:26:37.981Z,3.00
2022-09-16T05:30:51.674Z,3.03
2022-09-16T05:35:07.703Z,2.78
2022-09-16T05:39:24.029Z,2.80
2022-09-16T05:43:39.116Z,3.10
2022-09-16T05:47:52.788Z,2.67
2022-09-16T05:52:07.978Z,2.78
2022-09-16T05:56:25.571Z,2.50
2022-09-16T06:00:39.435Z,2.55
2022-09-16T06:04:53.265Z,2.10
2022-09-16T06:09:11.546Z,2.00
2022-09-16T06:13:25.299Z,1.90
2022-09-16T06:17:39.569Z,2.05
2022-09-16T06:21:53.225Z,4.47
2022-09-16T06:26:10.640Z,1.63
2022-09-16T06:30:26.078Z,2.10
2022-09-16T06:34:42.908Z,1.90
2022-09-16T06:38:56.877Z,2.10
2022-09-16T06:43:12.008Z,1.67
2022-09-16T06:47:25.870Z,1.27
2022-09-16T06:51:39.580Z,1.60
2022-09-16T06:55:53.391Z,1.50
2022-09-16T07:00:10.274Z,1.42
2022-09-16T07:04:23.992Z,1.30
2022-09-16T07:08:38.558Z,1.30
2022-09-16T07:12:55.042Z,1.40
2022-09-16T07:17:10.135Z,1.23
2022-09-16T07:21:28.660Z,1.40
2022-09-16T07:25:42.258Z,1.35
2022-09-16T07:29:59.578Z,1.40
2022-09-16T07:34:15.529Z,1.30
2022-09-16T07:38:30.433Z,1.60
2022-09-16T07:42:44.132Z,1.77
2022-09-16T07:46:57.736Z,1.27
2022-09-16T07:51:14.876Z,1.70
2022-09-16T07:55:28.521Z,1.58
2022-09-16T07:59:42.187Z,1.70
2022-09-16T08:03:57.307Z,1.50
2022-09-16T08:08:12.304Z,1.88
2022-09-16T08:12:26.076Z,1.60
2022-09-16T08:16:39.833Z,1.80
2022-09-16T08:20:53.545Z,1.60
2022-09-16T08:25:09.278Z,1.77
2022-09-16T08:29:25.106Z,1.87
2022-09-16T08:33:40.427Z,1.60
2022-09-16T08:37:54.927Z,1.75
2022-09-16T08:42:31.774Z,1.40
2022-09-16T08:46:53.540Z,1.63
2022-09-16T08:51:10.229Z,1.52
2022-09-16T08:55:31.754Z,1.40
2022-09-16T08:59:52.917Z,1.40
2022-09-16T09:04:07.131Z,1.45
2022-09-16T09:08:32.917Z,1.80
2022-09-16T09:12:54.456Z,2.00
2022-09-16T09:17:19.845Z,1.55
2022-09-16T09:21:42.531Z,1.45
2022-09-16T09:26:03.648Z,1.50
2022-09-16T09:30:21.992Z,1.80
2022-09-16T09:34:52.578Z,1.65
2022-09-16T09:39:25.008Z,1.40
2022-09-16T09:43:43.528Z,1.53
2022-09-16T09:48:02.268Z,1.23
2022-09-16T09:52:20.876Z,1.30
2022-09-16T09:56:37.628Z,1.40
2022-09-16T10:00:53.256Z,1.30
2022-09-16T10:05:07.805Z,1.30
2022-09-16T10:09:23.749Z,1.27
2022-09-16T10:13:48.297Z,1.00
2022-09-16T10:18:09.810Z,1.27
2022-09-16T10:22:27.555Z,1.23
2022-09-16T10:26:42.558Z,1.30
2022-09-16T10:30:59.333Z,1.20
2022-09-16T10:35:19.962Z,1.48
2022-09-16T10:39:34.255Z,1.90
2022-09-16T10:43:55.805Z,1.90
2022-09-16T10:48:15.934Z,1.52
2022-09-16T10:52:31.313Z,1.45
2022-09-16T10:56:50.195Z,1.43
2022-09-16T11:01:23.827Z,1.10
2022-09-16T11:05:47.349Z,1.13
2022-09-16T11:10:12.171Z,1.30
2022-09-16T11:14:40.783Z,1.30
2022-09-16T11:19:08.547Z,1.13
2022-09-16T11:23:35.213Z,1.00
2022-09-16T11:27:58.849Z,1.30
2022-09-16T11:32:23.378Z,1.20
2022-09-16T11:36:45.962Z,1.38
2022-09-16T11:41:04.837Z,1.30
2022-09-16T11:45:43.583Z,1.08
2022-09-16T11:50:09.885Z,1.10
2022-09-16T11:54:44.916Z,1.23
2022-09-16T11:59:03.529Z,1.20
2022-09-16T12:03:30.778Z,1.13
2022-09-16T12:07:49.889Z,1.33
2022-09-16T12:12:13.186Z,1.10
2022-09-16T12:16:37.218Z,1.00
2022-09-16T12:20:54.532Z,1.20
2022-09-16T12:25:12.428Z,1.10
2022-09-16T12:29:38.004Z,1.30
2022-09-16T12:33:55.974Z,1.00
2022-09-16T12:38:16.520Z,1.00
2022-09-16T12:43:01.438Z,1.00
2022-09-16T12:48:14.028Z,0.90
2022-09-16T12:52:42.835Z,0.97
2022-09-16T12:57:14.708Z,0.80
2022-09-16T13:01:33.772Z,1.10
2022-09-16T13:05:52.029Z,0.80
2022-09-16T13:10:08.974Z,0.70
2022-09-16T13:14:25.442Z,1.00
2022-09-16T13:18:45.029Z,1.05
2022-09-16T13:23:07.031Z,1.13
2022-09-16T13:27:34.482Z,1.00
2022-09-16T13:31:49.611Z,1.10
2022-09-16T13:36:16.707Z,1.20
2022-09-16T13:40:32.601Z,1.38
2022-09-16T13:44:46.335Z,1.10
2022-09-16T13:49:15.259Z,1.20
2022-09-16T13:53:31.902Z,1.20
2022-09-16T13:57:59.848Z,1.35
2022-09-16T14:02:19.791Z,1.40
2022-09-16T14:06:46.687Z,1.60
2022-09-16T14:11:07.478Z,1.38
2022-09-16T14:15:23.739Z,1.27
2022-09-16T14:19:39.928Z,1.30
2022-09-16T14:28:20.170Z,1.67
2022-09-16T14:32:37.775Z,1.30
2022-09-16T14:36:51.536Z,1.40
2022-09-16T14:41:07.860Z,1.42
2022-09-16T14:45:22.311Z,1.30
2022-09-16T14:49:39.214Z,1.20
2022-09-16T14:54:15.898Z,1.20
2022-09-16T14:58:32.308Z,1.30
2022-09-16T15:02:50.840Z,1.20
2022-09-16T15:07:12.634Z,1.30
2022-09-16T15:11:50.734Z,1.90
2022-09-16T15:16:10.791Z,1.10
2022-09-16T15:20:27.146Z,1.17
2022-09-16T15:24:43.096Z,1.33
2022-09-16T15:28:59.403Z,1.30
2022-09-16T15:33:29.709Z,1.40
2022-09-16T15:37:45.713Z,1.20
2022-09-16T15:42:12.889Z,1.30
2022-09-16T15:46:26.630Z,1.50
2022-09-16T15:50:45.226Z,1.30
2022-09-16T15:55:01.894Z,1.30
2022-09-16T15:59:28.047Z,1.30
2022-09-16T16:03:54.763Z,1.20
2022-09-16T16:08:10.090Z,1.13
2022-09-16T16:12:24.087Z,1.10
2022-09-16T16:17:01.481Z,1.30
2022-09-16T16:21:15.666Z,1.30
2022-09-16T16:25:29.968Z,1.33
2022-09-16T16:29:43.672Z,1.20
2022-09-16T16:33:58.876Z,1.33
2022-09-16T16:38:12.560Z,1.13
2022-09-16T16:42:28.651Z,1.17
2022-09-16T16:46:42.946Z,1.37
2022-09-16T16:51:00.714Z,1.05
2022-09-16T16:55:14.317Z,1.30
2022-09-16T16:59:28.815Z,1.37
2022-09-16T17:03:44.937Z,1.27
2022-09-16T17:07:59.975Z,1.80
2022-09-16T17:12:13.795Z,1.53
2022-09-16T17:16:28.658Z,2.75
2022-09-16T17:20:42.535Z,1.42
2022-09-16T17:24:57.797Z,1.67
2022-09-16T17:29:15.613Z,1.40
2022-09-16T17:33:31.013Z,1.33
2022-09-16T17:37:44.695Z,1.10
2022-09-16T17:42:00.175Z,1.10
2022-09-16T17:46:16.004Z,1.30
2022-09-16T17:50:29.817Z,1.20
2022-09-16T17:54:43.593Z,1.50
2022-09-16T17:58:58.630Z,1.00
2022-09-16T18:03:13.574Z,1.10
2022-09-16T18:07:27.402Z,1.25
2022-09-16T18:11:41.223Z,1.10
2022-09-16T18:15:56.420Z,1.30
2022-09-16T18:20:11.051Z,1.00
2022-09-16T18:24:24.657Z,1.20
2022-09-16T18:29:05.309Z,1.33
2022-09-16T18:33:14.337Z,1.50
2022-09-16T18:37:29.554Z,1.20
2022-09-16T18:41:45.429Z,1.25
2022-09-16T18:46:08.738Z,1.17
2022-09-16T18:50:31.517Z,1.10
2022-09-16T18:54:46.893Z,1.10
2022-09-16T18:59:21.581Z,1.30
2022-09-16T19:03:35.430Z,1.20
2022-09-16T19:07:50.441Z,1.30
2022-09-16T19:12:04.712Z,1.42
2022-09-16T19:16:18.919Z,1.50
2022-09-16T19:20:32.535Z,1.60
2022-09-16T19:24:49.110Z,1.38
2022-09-16T19:29:03.349Z,1.80
2022-09-16T19:33:17.319Z,1.67
2022-09-16T19:37:30.982Z,1.97
2022-09-16T19:41:46.003Z,1.45
2022-09-16T19:46:05.398Z,1.20
2022-09-16T19:50:19.312Z,1.40
2022-09-16T19:54:32.902Z,1.23
2022-09-16T19:58:48.039Z,1.55
2022-09-16T20:03:02.146Z,1.80
2022-09-16T20:07:17.345Z,1.45
2022-09-16T20:11:33.657Z,1.55
2022-09-16T20:15:48.657Z,1.30
2022-09-16T20:20:02.471Z,1.40
2022-09-16T20:24:18.422Z,1.67
2022-09-16T20:28:33.135Z,1.23
2022-09-16T20:32:48.177Z,1.60
2022-09-16T20:37:02.042Z,1.70
2022-09-16T20:41:18.437Z,1.50
2022-09-16T20:45:32.299Z,1.60
2022-09-16T20:49:47.319Z,1.63
2022-09-16T20:54:07.056Z,1.40
2022-09-16T20:58:21.588Z,1.65
2022-09-16T21:02:35.678Z,1.40
2022-09-16T21:06:50.812Z,1.50
2022-09-16T21:11:11.553Z,1.45
2022-09-16T21:15:25.223Z,1.70
2022-09-16T21:19:38.885Z,1.48
2022-09-16T21:23:55.676Z,1.30
2022-09-16T21:28:09.338Z,1.37
2022-09-16T21:32:22.969Z,1.65
2022-09-16T21:36:37.735Z,1.50
2022-09-16T21:41:00.257Z,1.45
2022-09-16T21:45:15.104Z,1.47
2022-09-16T21:49:30.456Z,1.45
2022-09-16T21:53:44.871Z,1.30
2022-09-16T21:57:59.887Z,1.30
2022-09-16T22:02:13.575Z,1.33
2022-09-16T22:06:27.893Z,1.35
2022-09-16T22:10:41.587Z,1.60
2022-09-16T22:14:56.680Z,1.20
2022-09-16T22:19:13.245Z,1.42
2022-09-16T22:23:26.926Z,1.40
2022-09-16T22:27:40.646Z,1.50
2022-09-16T22:31:55.929Z,1.40
2022-09-16T22:36:12.095Z,1.70
2022-09-16T22:40:25.855Z,1.50
2022-09-16T22:44:39.550Z,1.50
2022-09-16T22:48:56.730Z,1.83
2022-09-16T22:53:10.420Z,1.77
2022-09-16T22:57:24.253Z,1.42
2022-09-16T23:01:40.564Z,1.70
2022-09-16T23:06:04.253Z,1.63
2022-09-16T23:10:17.954Z,1.40
2022-09-16T23:14:32.179Z,1.80
2022-09-16T23:18:47.931Z,1.52
2022-09-16T23:23:03.230Z,2.03
2022-09-16T23:27:16.979Z,1.58
2022-09-16T23:31:32.473Z,1.58
2022-09-16T23:35:51.455Z,1.57
2022-09-16T23:40:07.734Z,1.88
2022-09-16T23:44:22.449Z,1.67
2022-09-16T23:48:36.255Z,1.77
2022-09-16T23:52:49.992Z,1.70
2022-09-16T23:57:05.356Z,1.50
